Time;durP1;ratioP1;P1;durP2;ratioP2;P2;SDS_P1;SDS_P2;PMS_P1;PMS_P2;Temp;Humidity;BMP_temperature;BMP_pressure;BME280_temperature;BME280_humidity;BME280_pressure;Samples;Min_cycle;Max_cycle;Signal;HPM_P1;HPM_P2
2021/05/22 00:02:10;;;;;;;12.45;1.80;;;;;;;13.36;57.98;100076.72;4953956;29;20055;-62
2021/05/22 00:04:38;;;;;;;8.60;2.13;;;;;;;12.90;58.69;100084.66;4937067;29;20050;-60
2021/05/22 00:07:05;;;;;;;13.60;2.22;;;;;;;13.32;58.07;100081.34;4954088;29;20054;-63
2021/05/22 00:09:33;;;;;;;11.75;1.83;;;;;;;13.67;58.47;100092.69;4936859;29;20207;-62
2021/05/22 00:16:28;;;;;;;10.85;1.55;;;;;;;13.64;57.33;100087.06;4953937;29;20051;-61
2021/05/22 00:18:56;;;;;;;8.57;1.83;;;;;;;13.49;56.52;100083.06;4936800;29;20055;-62
2021/05/22 00:21:23;;;;;;;7.85;1.60;;;;;;;13.51;57.50;100086.28;4954377;29;20530;-60
2021/05/22 00:23:51;;;;;;;15.95;2.03;;;;;;;13.61;58.71;100079.47;4954650;29;20059;-61
2021/05/22 00:26:18;;;;;;;8.98;1.85;;;;;;;13.48;58.30;100079.47;4953875;29;20051;-62
2021/05/22 00:28:46;;;;;;;13.15;2.25;;;;;;;13.39;58.44;100080.75;4954234;29;20047;-61
2021/05/22 00:31:14;;;;;;;11.57;1.88;;;;;;;13.41;57.55;100079.25;4936583;29;20051;-63
2021/05/22 00:33:41;;;;;;;13.77;2.25;;;;;;;13.30;57.70;100072.56;4954164;28;20063;-62
2021/05/22 00:36:09;;;;;;;11.40;2.28;;;;;;;13.55;58.67;100073.34;4937447;29;20055;-61
2021/05/22 00:38:36;;;;;;;9.90;1.73;;;;;;;13.12;58.37;100067.63;4953553;29;20503;-61
2021/05/22 00:41:04;;;;;;;14.13;2.30;;;;;;;13.49;57.55;100081.09;4936682;29;20406;-61
2021/05/22 00:43:31;;;;;;;16.25;2.63;;;;;;;13.27;57.71;100059.44;4953445;29;20539;-60
2021/05/22 00:45:58;;;;;;;15.40;2.45;;;;;;;13.18;58.69;100072.59;4953304;29;20058;-60
2021/05/22 00:48:26;;;;;;;10.40;2.10;;;;;;;13.11;59.44;100074.34;4936320;29;20058;-62
2021/05/22 00:50:53;;;;;;;11.15;2.03;;;;;;;13.49;58.40;100063.69;4953897;29;20047;-59
2021/05/22 00:53:21;;;;;;;16.92;2.30;;;;;;;13.11;59.53;100058.53;4953141;29;20054;-62
2021/05/22 00:55:49;;;;;;;11.40;1.92;;;;;;;13.12;58.98;100060.16;4936307;29;20055;-61
2021/05/22 00:58:17;;;;;;;10.30;2.17;;;;;;;13.26;58.64;100070.88;4953448;29;20070;-63
2021/05/22 01:00:49;;;;;;;10.10;2.08;;;;;;;13.71;57.60;100071.47;4953918;29;20050;-61
2021/05/22 01:03:49;;;;;;;12.02;1.98;;;;;;;13.20;59.39;100059.22;4954193;29;20073;-61
2021/05/22 01:06:24;;;;;;;15.38;2.15;;;;;;;13.39;59.43;100064.97;4878943;29;20072;-61
2021/05/22 01:09:07;;;;;;;11.35;2.13;;;;;;;13.31;59.30;100063.13;4894745;29;20084;-62
2021/05/22 01:11:39;;;;;;;16.15;2.17;;;;;;;13.29;59.72;100059.09;4894218;29;20048;-61
2021/05/22 01:14:20;;;;;;;12.43;2.78;;;;;;;13.41;59.65;100061.84;4894916;29;20057;-62
2021/05/22 01:16:51;;;;;;;11.02;1.90;;;;;;;13.74;58.42;100053.38;4894849;29;20104;-60
2021/05/22 01:20:00;;;;;;;12.73;2.47;;;;;;;13.55;58.74;100062.28;4894408;29;20630;-61
2021/05/22 01:22:30;;;;;;;14.68;2.42;;;;;;;13.33;58.95;100049.78;4861565;29;20053;-61
2021/05/22 01:25:05;;;;;;;12.38;2.63;;;;;;;13.22;59.48;100054.16;4879129;29;20057;-60
2021/05/22 01:27:33;;;;;;;10.30;2.05;;;;;;;13.11;60.59;100046.69;4879711;29;20057;-61
2021/05/22 01:30:04;;;;;;;10.23;1.85;;;;;;;13.09;60.60;100049.78;4879402;29;20064;-61
2021/05/22 01:32:32;;;;;;;;;;;;;;;13.05;60.92;100048.88;4880052;29;20190;-61
2021/05/22 01:34:59;;;;;;;16.52;2.88;;;;;;;13.23;60.70;100039.16;4864091;29;20376;-62
2021/05/22 01:37:26;;;;;;;15.57;2.45;;;;;;;12.97;60.70;100055.28;4860708;29;20057;-61
2021/05/22 01:39:54;;;;;;;10.07;2.00;;;;;;;13.10;61.53;100048.63;4860563;29;20129;-60
2021/05/22 01:42:21;;;;;;;10.95;2.45;;;;;;;13.33;59.99;100049.78;4873215;29;20064;-62
2021/05/22 01:44:51;;;;;;;13.88;2.22;;;;;;;13.20;60.05;100045.41;4897807;29;20059;-61
2021/05/22 01:47:22;;;;;;;18.80;2.47;;;;;;;13.32;60.64;100053.69;4897736;29;20059;-60
2021/05/22 01:49:51;;;;;;;12.23;1.80;;;;;;;13.48;60.76;100048.22;4881743;29;20056;-60
2021/05/22 01:52:19;;;;;;;13.82;2.40;;;;;;;13.85;60.07;100055.28;4866524;29;20053;-60
2021/05/22 01:54:48;;;;;;;17.35;2.67;;;;;;;13.47;60.29;100064.06;4881898;29;20044;-60
2021/05/22 01:57:16;;;;;;;12.57;2.33;;;;;;;13.34;61.00;100059.69;4904311;29;20062;-60
2021/05/22 01:59:43;;;;;;;15.95;2.28;;;;;;;13.39;60.95;100050.31;4937338;29;20056;-60
2021/05/22 02:02:11;;;;;;;12.88;2.45;;;;;;;13.55;60.74;100056.75;4920345;29;20129;-60
2021/05/22 02:04:43;;;;;;;17.20;2.65;;;;;;;13.74;59.16;100054.16;4920362;29;20508;-62
2021/05/22 02:07:17;;;;;;;10.50;2.25;;;;;;;13.76;60.25;100046.31;4920974;29;20145;-61
2021/05/22 02:09:47;;;;;;;13.32;2.30;;;;;;;13.84;59.65;100044.59;4920934;29;20435;-61
2021/05/22 02:12:14;;;;;;;15.15;3.08;;;;;;;13.74;59.11;100053.38;4920647;29;20056;-60
2021/05/22 02:14:42;;;;;;;13.52;1.88;;;;;;;13.87;58.60;100047.44;4920776;29;20369;-60
2021/05/22 02:17:12;;;;;;;13.27;2.22;;;;;;;13.71;59.14;100054.88;4920277;29;20059;-60
2021/05/22 02:19:44;;;;;;;16.38;3.10;;;;;;;13.73;59.54;100043.44;4920590;29;20055;-60
2021/05/22 02:22:12;;;;;;;17.42;2.92;;;;;;;13.62;59.80;100045.91;4920520;29;20134;-60
2021/05/22 02:24:40;;;;;;;16.25;2.30;;;;;;;13.61;60.25;100049.84;4905254;29;20051;-61
2021/05/22 02:27:08;;;;;;;13.00;2.55;;;;;;;13.61;59.98;100037.94;4920302;29;20051;-61
2021/05/22 02:29:37;;;;;;;12.60;2.28;;;;;;;13.79;60.62;100033.75;4919763;29;20056;-61
2021/05/22 02:32:05;;;;;;;12.65;2.20;;;;;;;13.69;59.98;100045.28;4920415;29;20407;-62
2021/05/22 02:34:39;;;;;;;13.70;3.08;;;;;;;13.11;60.99;100041.16;4931393;29;20051;-60
2021/05/22 02:37:07;;;;;;;14.60;2.38;;;;;;;13.27;60.94;100040.09;4938883;29;20047;-62
2021/05/22 02:39:35;;;;;;;14.80;2.40;;;;;;;13.41;61.11;100040.53;4939626;29;20055;-61
2021/05/22 02:42:05;;;;;;;11.55;2.20;;;;;;;13.27;60.81;100029.03;4938807;29;20058;-60
2021/05/22 02:44:32;;;;;;;;;;;;;;;13.19;62.42;100043.78;4939619;29;20336;-61
2021/05/22 02:47:00;;;;;;;17.20;2.22;;;;;;;13.49;61.24;100050.66;4955513;29;19930;-62
2021/05/22 02:49:30;;;;;;;11.32;1.90;;;;;;;13.79;60.29;100031.00;4939583;29;20047;-61
2021/05/22 02:52:01;;;;;;;15.75;2.45;;;;;;;13.68;60.80;100040.94;4939277;29;20051;-62
2021/05/22 02:54:30;;;;;;;13.82;2.38;;;;;;;13.66;61.20;100044.06;4939179;29;20055;-61
2021/05/22 02:56:58;;;;;;;12.05;2.78;;;;;;;13.40;60.95;100043.66;4955410;29;20506;-61
2021/05/22 02:59:27;;;;;;;13.70;2.78;;;;;;;13.19;61.53;100054.84;4955545;29;20059;-61
2021/05/22 03:01:54;;;;;;;13.02;2.25;;;;;;;13.17;61.71;100048.88;4956023;29;20468;-60
2021/05/22 03:04:22;;;;;;;13.38;2.90;;;;;;;13.19;62.37;100041.03;4922568;29;20161;-60
2021/05/22 03:06:49;;;;;;;13.75;2.03;;;;;;;13.77;60.96;100047.13;4955669;29;20463;-61
2021/05/22 03:09:17;;;;;;;16.88;2.45;;;;;;;13.34;61.54;100045.84;4955034;29;20141;-64
2021/05/22 03:11:44;;;;;;;13.63;2.50;;;;;;;13.38;61.35;100051.50;4955201;29;20044;-62
2021/05/22 03:14:11;;;;;;;18.17;2.67;;;;;;;13.27;61.57;100053.09;4938220;29;20128;-61
2021/05/22 03:16:39;;;;;;;22.85;3.08;;;;;;;13.26;61.42;100044.03;4938660;29;20078;-62
2021/05/22 03:19:07;;;;;;;13.57;3.00;;;;;;;13.62;60.84;100042.31;4937897;29;20047;-61
2021/05/22 03:21:34;;;;;;;13.48;2.78;;;;;;;13.64;60.24;100046.34;4954884;29;20058;-60
2021/05/22 03:24:03;;;;;;;16.65;2.80;;;;;;;13.25;61.65;100053.44;4955254;29;20063;-60
2021/05/22 03:26:31;;;;;;;16.75;2.30;;;;;;;13.29;62.01;100050.81;4954866;29;20055;-60
2021/05/22 03:28:59;;;;;;;16.55;2.75;;;;;;;13.16;62.21;100044.47;4955409;29;20149;-61
2021/05/22 03:31:26;;;;;;;15.38;2.20;;;;;;;13.22;62.42;100048.63;4954870;29;20062;-61
2021/05/22 03:33:53;;;;;;;16.92;2.40;;;;;;;13.17;62.03;100046.09;4937978;29;20055;-62
2021/05/22 03:36:21;;;;;;;11.73;2.38;;;;;;;13.06;62.48;100041.34;4955477;29;20054;-61
2021/05/22 03:38:48;;;;;;;14.00;2.30;;;;;;;13.54;62.66;100055.97;4955178;29;20043;-61
2021/05/22 03:41:16;;;;;;;15.57;2.90;;;;;;;13.62;62.09;100058.91;4955287;29;20047;-60
2021/05/22 03:43:43;;;;;;;14.55;2.90;;;;;;;13.36;62.56;100053.78;4937737;29;20062;-60
2021/05/22 03:50:34;;;;;;;14.90;2.28;;;;;;;13.08;62.58;100041.81;4955236;29;20395;-62
2021/05/22 03:53:02;;;;;;;16.25;2.55;;;;;;;13.35;62.90;100047.44;4954994;29;20510;-61
2021/05/22 03:55:30;;;;;;;17.10;2.78;;;;;;;13.07;62.72;100049.34;4937348;29;20058;-61
2021/05/22 03:57:59;;;;;;;13.95;3.10;;;;;;;13.43;62.34;100051.25;4937621;29;20047;-62
2021/05/22 04:00:27;;;;;;;23.98;4.43;;;;;;;13.08;62.17;100039.88;4954828;29;20047;-61
2021/05/22 04:02:54;;;;;;;14.82;3.08;;;;;;;13.12;63.08;100051.06;4954247;29;20055;-62
2021/05/22 04:05:22;;;;;;;18.13;4.32;;;;;;;13.17;63.34;100057.16;4953999;29;20055;-61
2021/05/22 04:07:49;;;;;;;20.80;4.90;;;;;;;12.77;63.21;100056.19;4936912;29;20495;-63
2021/05/22 04:10:18;;;;;;;17.95;2.95;;;;;;;13.21;63.86;100058.09;4954728;29;20051;-62
2021/05/22 04:12:45;;;;;;;18.85;2.90;;;;;;;13.66;61.36;100068.97;4954284;29;20456;-62
2021/05/22 04:15:13;;;;;;;16.40;3.33;;;;;;;13.45;61.66;100068.31;4937520;29;20070;-61
2021/05/22 04:17:41;;;;;;;16.40;2.75;;;;;;;13.19;62.84;100068.69;4953940;29;20074;-61
2021/05/22 04:20:09;;;;;;;17.27;3.00;;;;;;;13.49;60.96;100072.78;4954809;29;20055;-63
2021/05/22 04:22:36;;;;;;;18.42;3.00;;;;;;;13.28;62.03;100080.44;4937511;29;20054;-61
2021/05/22 04:25:08;;;;;;;20.38;3.58;;;;;;;13.42;61.77;100078.09;4937062;29;20055;-63
2021/05/22 04:27:36;;;;;;;22.38;3.05;;;;;;;13.27;62.37;100078.81;4937213;29;20048;-62
2021/05/22 04:30:05;;;;;;;18.85;3.10;;;;;;;13.43;61.26;100081.69;4953506;29;20511;-61
2021/05/22 04:32:35;;;;;;;25.10;3.63;;;;;;;13.00;62.69;100078.66;4954321;29;20055;-62
2021/05/22 04:35:03;;;;;;;16.48;2.60;;;;;;;13.30;63.64;100089.16;4937209;29;20051;-62
2021/05/22 04:37:31;;;;;;;18.50;2.83;;;;;;;13.28;62.50;100083.22;4954175;29;20051;-61
2021/05/22 04:39:58;;;;;;;20.77;3.22;;;;;;;13.32;62.36;100091.59;4953826;29;20058;-60
2021/05/22 04:42:27;;;;;;;17.85;2.85;;;;;;;13.36;62.61;100090.56;4953491;29;20498;-61
2021/05/22 04:44:55;;;;;;;15.48;2.58;;;;;;;13.62;62.54;100094.91;4953202;29;20063;-61
2021/05/22 04:47:23;;;;;;;18.80;2.95;;;;;;;13.20;61.87;100094.34;4954051;29;20051;-61
2021/05/22 04:49:50;;;;;;;21.77;3.55;;;;;;;13.23;62.51;100100.00;4937204;29;20066;-61
2021/05/22 04:52:21;;;;;;;19.60;2.80;;;;;;;13.28;62.27;100094.28;4936390;29;20054;-61
2021/05/22 04:54:51;;;;;;;13.35;3.25;;;;;;;13.00;63.76;100104.38;4953316;29;20086;-61
2021/05/22 04:57:19;;;;;;;19.83;3.45;;;;;;;13.26;63.36;100104.88;4953432;28;20515;-61
2021/05/22 04:59:46;;;;;;;15.55;2.80;;;;;;;13.24;62.82;100100.81;4953280;29;20486;-62
2021/05/22 05:06:51;;;;;;;11.18;2.20;;;;;;;13.35;62.49;100119.38;4952895;29;20150;-62
2021/05/22 05:09:20;;;;;;;19.73;3.10;;;;;;;13.25;61.43;100103.22;4905701;29;20043;-61
2021/05/22 05:11:47;;;;;;;25.08;2.85;;;;;;;13.23;62.43;100113.03;4952949;29;20066;-61
2021/05/22 05:14:16;;;;;;;16.05;3.10;;;;;;;13.15;62.93;100125.81;4953201;29;20055;-60
2021/05/22 05:16:43;;;;;;;20.63;3.38;;;;;;;13.35;62.93;100116.59;4953031;29;20059;-63
2021/05/22 05:19:10;;;;;;;19.27;3.38;;;;;;;13.57;62.07;100120.84;4953094;29;20062;-61
2021/05/22 05:21:38;;;;;;;15.10;3.83;;;;;;;13.13;61.80;100130.06;4952969;29;20068;-62
2021/05/22 05:24:06;;;;;;;15.48;3.08;;;;;;;13.22;62.31;100128.81;4953734;29;20059;-60
2021/05/22 05:26:34;;;;;;;16.73;3.70;;;;;;;13.46;61.86;100126.06;4953306;29;20460;-61
2021/05/22 05:29:03;;;;;;;15.88;3.08;;;;;;;13.30;61.94;100135.41;4935780;29;20056;-62
2021/05/22 05:31:30;;;;;;;13.07;2.67;;;;;;;13.57;62.92;100137.47;4935571;29;20051;-61
2021/05/22 05:33:57;;;;;;;20.98;3.25;;;;;;;13.52;62.85;100130.22;4936185;29;20051;-61
2021/05/22 05:36:25;;;;;;;20.45;2.90;;;;;;;13.47;61.05;100135.97;4953207;29;20047;-61
2021/05/22 05:38:53;;;;;;;19.15;2.88;;;;;;;12.98;62.94;100137.06;4953660;29;20043;-61
2021/05/22 05:41:20;;;;;;;17.52;3.03;;;;;;;13.31;62.20;100137.81;4936104;29;20051;-62
2021/05/22 05:43:48;;;;;;;22.50;4.57;;;;;;;13.60;61.88;100135.97;4936827;29;20064;-62
2021/05/22 05:46:15;;;;;;;19.58;4.85;;;;;;;13.54;61.92;100136.22;4936247;29;20047;-62
2021/05/22 05:48:43;;;;;;;20.02;3.53;;;;;;;13.58;60.86;100134.34;4953476;29;20055;-60
2021/05/22 05:51:10;;;;;;;14.93;3.00;;;;;;;13.35;62.64;100141.50;4954173;29;20055;-62
2021/05/22 05:53:39;;;;;;;22.45;2.95;;;;;;;13.64;61.77;100139.63;4954011;29;20051;-63
2021/05/22 05:56:08;;;;;;;18.53;3.17;;;;;;;14.08;59.33;100147.75;4952894;29;20055;-62
2021/05/22 05:58:36;;;;;;;16.23;3.08;;;;;;;13.68;60.78;100151.63;4953477;29;20077;-61
2021/05/22 06:01:06;;;;;;;14.52;2.70;;;;;;;13.96;60.69;100160.81;4953568;29;20047;-61
2021/05/22 06:03:34;;;;;;;19.50;3.08;;;;;;;13.62;60.13;100156.59;4935711;29;20058;-62
2021/05/22 06:06:01;;;;;;;14.75;2.50;;;;;;;13.46;60.47;100153.72;4952722;29;20043;-65
2021/05/22 06:08:29;;;;;;;20.20;3.47;;;;;;;13.47;61.96;100163.66;4953469;28;20055;-60
2021/05/22 06:10:57;;;;;;;18.40;3.00;;;;;;;13.63;61.01;100162.94;4956896;29;20055;-64
2021/05/22 06:13:26;;;;;;;18.05;2.78;;;;;;;14.05;60.41;100169.81;4956109;29;20475;-61
2021/05/22 06:16:04;;;;;;;19.10;3.42;;;;;;;14.38;59.53;100176.75;4955860;29;20070;-62
2021/05/22 06:18:34;;;;;;;17.85;3.03;;;;;;;14.33;59.72;100170.69;4956940;29;20047;-61
2021/05/22 06:21:07;;;;;;;15.38;3.00;;;;;;;13.72;59.96;100180.25;4940113;29;20495;-60
2021/05/22 06:23:35;;;;;;;15.75;3.92;;;;;;;13.95;59.41;100184.94;4956592;29;20055;-61
2021/05/22 06:26:05;;;;;;;16.05;2.78;;;;;;;13.92;58.71;100171.78;4956736;29;20411;-61
2021/05/22 06:28:33;;;;;;;14.57;2.90;;;;;;;13.88;58.86;100184.69;4956802;29;20047;-62
2021/05/22 06:31:01;;;;;;;13.25;2.58;;;;;;;14.13;59.33;100185.47;4956450;29;20070;-62
2021/05/22 06:33:29;;;;;;;14.43;2.63;;;;;;;14.35;57.04;100173.88;4938414;29;20058;-60
2021/05/22 06:35:57;;;;;;;21.00;3.30;;;;;;;14.22;58.09;100180.59;4955646;29;20050;-62
2021/05/22 06:38:25;;;;;;;14.82;2.50;;;;;;;14.12;57.73;100194.94;4939300;29;20062;-60
2021/05/22 06:40:53;;;;;;;15.43;2.80;;;;;;;14.21;57.44;100190.09;4956083;29;20403;-62
2021/05/22 06:43:21;;;;;;;14.63;2.75;;;;;;;14.47;58.45;100198.81;4938718;29;20048;-61
2021/05/22 06:52:51;;;;;;;14.98;2.42;;;;;;;14.68;55.92;100202.97;4956152;29;20043;-62
2021/05/22 06:55:20;;;;;;;15.38;2.88;;;;;;;14.81;56.63;100212.06;4956004;29;20047;-62
2021/05/22 06:57:47;;;;;;;14.05;2.25;;;;;;;14.99;57.36;100199.50;4955078;29;20055;-62
2021/05/22 07:00:15;;;;;;;11.90;2.47;;;;;;;15.04;55.63;100210.31;4955765;29;20054;-62
2021/05/22 07:02:42;;;;;;;13.70;2.08;;;;;;;14.87;56.75;100212.63;4956104;28;20495;-64
2021/05/22 07:05:10;;;;;;;9.73;2.50;;;;;;;14.73;55.90;100221.34;4938611;29;20064;-62
2021/05/22 07:07:39;;;;;;;12.05;2.50;;;;;;;14.95;55.99;100208.88;4937981;29;20066;-61
2021/05/22 07:10:08;;;;;;;10.88;1.98;;;;;;;15.07;53.08;100219.88;4938392;29;20094;-61
2021/05/22 07:12:36;;;;;;;15.15;2.50;;;;;;;14.66;54.71;100221.13;4954817;29;20388;-62
2021/05/22 07:15:05;;;;;;;11.50;2.30;;;;;;;15.12;53.87;100225.16;4955622;29;20046;-62
2021/05/22 07:17:33;;;;;;;16.97;3.07;;;;;;;14.41;55.15;100227.91;4955603;29;20055;-60
2021/05/22 07:20:01;;;;;;;13.57;2.75;;;;;;;14.32;53.58;100238.31;4954226;28;20047;-61
2021/05/22 07:22:29;;;;;;;10.73;1.98;;;;;;;13.86;54.30;100261.75;4954703;29;20507;-61
2021/05/22 07:24:58;;;;;;;9.10;1.77;;;;;;;13.82;54.24;100244.25;4955535;29;20051;-62
2021/05/22 07:27:26;;;;;;;9.75;2.30;;;;;;;16.23;52.72;100248.63;4955098;29;20058;-61
2021/05/22 07:29:54;;;;;;;10.73;2.15;;;;;;;15.61;52.38;100252.31;4954973;29;20063;-62
2021/05/22 07:32:21;;;;;;;13.70;2.33;;;;;;;15.65;48.02;100253.22;4954672;29;20062;-62
2021/05/22 07:34:49;;;;;;;9.85;2.78;;;;;;;16.15;50.72;100260.75;4937229;29;20047;-62
2021/05/22 07:37:16;;;;;;;8.45;2.65;;;;;;;17.29;48.49;100267.59;4954644;29;20506;-62
2021/05/22 07:39:43;;;;;;;15.10;2.55;;;;;;;16.74;47.47;100274.41;4954579;29;20054;-63
2021/05/22 07:42:11;;;;;;;10.77;2.45;;;;;;;16.94;45.56;100264.09;4954998;29;20111;-61
2021/05/22 07:44:38;;;;;;;11.00;2.25;;;;;;;16.96;45.84;100276.47;4955188;29;20062;-61
2021/05/22 07:47:06;;;;;;;6.55;1.67;;;;;;;16.45;46.68;100277.72;4954705;29;20050;-61
2021/05/22 07:49:39;;;;;;;7.68;2.00;;;;;;;16.32;46.79;100290.94;4954841;29;20062;-61
2021/05/22 07:52:10;;;;;;;8.90;2.00;;;;;;;16.62;45.93;100283.72;4954173;29;20059;-63
2021/05/22 07:54:44;;;;;;;13.52;2.78;;;;;;;15.58;47.95;100282.75;4954712;29;20054;-62
2021/05/22 07:57:12;;;;;;;11.63;2.45;;;;;;;15.73;51.01;100290.25;4937538;29;20071;-62
2021/05/22 07:59:40;;;;;;;11.82;2.65;;;;;;;15.35;50.01;100293.63;4937326;29;20399;-60
2021/05/22 08:02:08;;;;;;;16.13;4.43;;;;;;;16.21;50.90;100294.63;4953885;29;20059;-63
2021/05/22 08:09:04;;;;;;;11.32;2.63;;;;;;;15.64;51.79;100287.66;4953929;29;20051;-68
2021/05/22 08:11:35;;;;;;;11.75;2.33;;;;;;;15.60;52.00;100295.09;4937829;29;20074;-70
2021/05/22 08:14:03;;;;;;;14.98;3.08;;;;;;;15.35;52.08;100295.56;4954182;29;20051;-72
2021/05/22 08:16:30;;;;;;;12.95;2.20;;;;;;;15.37;53.29;100299.63;4937283;29;20043;-70
2021/05/22 08:19:01;;;;;;;12.55;3.25;;;;;;;15.43;52.60;100291.88;4954396;29;20046;-70
2021/05/22 08:21:29;;;;;;;21.10;3.38;;;;;;;15.53;52.46;100302.44;4954281;29;20056;-70
2021/05/22 08:23:57;;;;;;;15.00;3.65;;;;;;;15.92;51.55;100297.91;4937578;29;20044;-72
2021/05/22 08:26:25;;;;;;;17.02;3.75;;;;;;;15.82;51.76;100299.22;4936514;29;20498;-71
2021/05/22 08:29:14;;;;;;;17.83;3.22;;;;;;;15.82;51.90;100303.97;4940263;29;20054;-69
2021/05/22 08:31:42;;;;;;;14.68;2.45;;;;;;;16.09;51.86;100303.09;4953660;28;20394;-72
2021/05/22 08:34:09;;;;;;;15.27;3.40;;;;;;;15.93;52.12;100291.97;4919455;29;20047;-70
2021/05/22 08:36:37;;;;;;;14.15;4.20;;;;;;;15.97;51.94;100292.84;4921362;29;20047;-69
2021/05/22 08:39:05;;;;;;;10.82;1.90;;;;;;;15.70;51.22;100302.91;4943409;28;20051;-70
2021/05/22 08:41:33;;;;;;;11.52;2.67;;;;;;;15.99;50.66;100309.19;4953996;29;20522;-72
2021/05/22 08:44:03;;;;;;;10.68;2.10;;;;;;;15.89;50.16;100299.41;4953714;29;20495;-72
2021/05/22 08:46:31;;;;;;;8.77;2.00;;;;;;;16.00;50.55;100308.00;4936417;29;20055;-71
2021/05/22 08:48:59;;;;;;;16.08;1.92;;;;;;;15.39;50.55;100313.94;4953981;29;20500;-71
2021/05/22 08:51:26;;;;;;;14.45;3.05;;;;;;;15.28;51.27;100315.63;4952722;29;20051;-69
2021/05/22 08:53:55;;;;;;;9.27;2.10;;;;;;;15.74;50.71;100317.69;4953183;29;20059;-71
2021/05/22 08:56:26;;;;;;;10.10;1.92;;;;;;;15.36;51.21;100317.41;4953341;29;20514;-71
2021/05/22 08:58:53;;;;;;;;;;;;;;;15.51;51.36;100322.25;4953515;29;20039;-68
2021/05/22 09:01:23;;;;;;;12.75;2.33;;;;;;;15.81;50.56;100316.25;4954252;29;19922;-71
2021/05/22 09:03:50;;;;;;;11.18;2.40;;;;;;;15.90;50.05;100317.69;4936710;29;20085;-72
2021/05/22 09:06:21;;;;;;;8.85;2.35;;;;;;;15.94;50.42;100324.13;4936605;29;20404;-68
2021/05/22 09:09:03;;;;;;;15.95;2.20;;;;;;;15.95;50.14;100320.22;4954212;29;20051;-70
2021/05/22 09:11:46;;;;;;;8.75;1.90;;;;;;;16.11;50.05;100325.75;4953401;29;20063;-73
2021/05/22 09:14:43;;;;;;;13.07;2.38;;;;;;;15.75;51.72;100327.63;4936811;29;20047;-71
2021/05/22 09:17:12;;;;;;;11.82;3.00;;;;;;;15.64;53.17;100326.53;4922041;29;20141;-71
2021/05/22 09:19:41;;;;;;;15.45;2.63;;;;;;;15.59;54.01;100329.59;4937753;29;20047;-71
2021/05/22 09:22:24;;;;;;;11.35;2.38;;;;;;;15.48;55.20;100319.38;4907526;29;20055;-70
2021/05/22 09:25:05;;;;;;;12.07;2.40;;;;;;;15.53;55.42;100319.88;4936759;29;20522;-70
2021/05/22 09:27:37;;;;;;;12.23;2.58;;;;;;;15.77;54.00;100325.31;4936912;29;20055;-72
2021/05/22 09:30:28;;;;;;;11.30;2.88;;;;;;;15.45;53.66;100339.50;4936865;29;20055;-72
2021/05/22 09:32:56;;;;;;;14.68;2.80;;;;;;;15.40;53.43;100331.41;4932228;29;20068;-70
2021/05/22 09:35:26;;;;;;;12.10;2.60;;;;;;;15.95;51.77;100320.22;4931727;29;20048;-70
2021/05/22 09:38:01;;;;;;;11.88;3.13;;;;;;;16.06;51.45;100328.78;4917113;29;20500;-71
2021/05/22 09:40:31;;;;;;;15.82;2.60;;;;;;;15.73;51.41;100326.38;4916558;29;20047;-73
2021/05/22 09:43:00;;;;;;;11.20;2.25;;;;;;;15.86;51.29;100321.53;4933438;29;20047;-71
2021/05/22 09:45:30;;;;;;;18.15;2.55;;;;;;;15.68;51.37;100324.69;4936990;29;20053;-71
2021/05/22 09:47:59;;;;;;;;;;;;;;;15.80;50.74;100326.56;4905734;29;20059;-71
2021/05/22 09:50:27;;;;;;;13.00;2.40;;;;;;;15.90;50.55;100328.00;4936216;29;20031;-74
2021/05/22 09:52:55;;;;;;;8.52;2.20;;;;;;;15.97;50.15;100334.53;4921682;29;20460;-71
2021/05/22 09:55:23;;;;;;;10.48;2.00;;;;;;;16.06;49.49;100329.59;4937044;29;20044;-73
2021/05/22 09:57:53;;;;;;;9.73;2.05;;;;;;;15.87;49.95;100323.16;4904716;29;20055;-72
2021/05/22 10:00:23;;;;;;;12.27;1.95;;;;;;;16.12;49.66;100327.34;4920004;29;20067;-72
2021/05/22 10:02:58;;;;;;;11.90;2.03;;;;;;;16.11;50.17;100322.97;4920011;29;20574;-71
2021/05/22 10:05:34;;;;;;;9.57;2.40;;;;;;;16.24;49.50;100327.25;4938599;29;20051;-71
2021/05/22 10:08:04;;;;;;;7.97;1.83;;;;;;;16.23;48.68;100331.22;4956350;29;20070;-71
2021/05/22 10:10:46;;;;;;;8.57;1.83;;;;;;;16.31;48.17;100332.97;4956369;29;20055;-69
2021/05/22 10:13:20;;;;;;;8.00;1.88;;;;;;;16.44;48.05;100326.16;4939550;29;20054;-69
2021/05/22 10:15:50;;;;;;;10.25;2.35;;;;;;;16.48;47.58;100327.06;4956598;29;20055;-73
2021/05/22 10:18:18;;;;;;;8.05;1.77;;;;;;;16.15;46.85;100327.44;4957081;29;20047;-70
2021/05/22 10:20:47;;;;;;;8.18;1.38;;;;;;;15.97;46.79;100339.28;4956083;29;20055;-72
2021/05/22 10:23:15;;;;;;;6.40;1.35;;;;;;;15.72;48.33;100338.66;4924110;29;20051;-69
2021/05/22 10:25:43;;;;;;;6.10;1.52;;;;;;;15.85;48.00;100337.38;4956645;29;20140;-70
2021/05/22 10:28:10;;;;;;;10.68;2.20;;;;;;;16.04;48.10;100345.03;4956419;29;20050;-70
2021/05/22 10:30:38;;;;;;;13.32;2.63;;;;;;;16.27;48.24;100345.97;4955542;29;20058;-69
2021/05/22 10:33:07;;;;;;;9.35;2.53;;;;;;;16.43;48.63;100342.03;4955662;29;20479;-73
2021/05/22 10:35:43;;;;;;;10.40;2.28;;;;;;;16.67;48.51;100336.25;4939046;29;20055;-71
2021/05/22 10:38:33;;;;;;;12.57;1.90;;;;;;;16.86;47.70;100341.84;4956151;29;20058;-69
2021/05/22 10:41:04;;;;;;;8.20;1.75;;;;;;;16.90;46.69;100333.56;4956276;28;20580;-70
2021/05/22 10:44:01;;;;;;;;;;;;;;;16.52;47.21;100327.97;4956600;29;20059;-67
2021/05/22 10:46:29;;;;;;;12.70;1.98;;;;;;;16.45;46.61;100327.75;4878217;29;19931;-71
2021/05/22 10:48:59;;;;;;;6.93;1.50;;;;;;;15.99;47.17;100323.88;4862537;29;20061;-70
2021/05/22 10:51:35;;;;;;;6.63;1.60;;;;;;;15.78;48.07;100329.69;4863750;29;20056;-71
2021/05/22 10:54:17;;;;;;;11.70;2.50;;;;;;;15.99;48.63;100337.75;4878149;29;20061;-69
2021/05/22 10:57:07;;;;;;;10.60;2.30;;;;;;;16.67;47.40;100333.47;4862257;29;20509;-69
2021/05/22 10:59:39;;;;;;;16.58;2.60;;;;;;;16.86;46.30;100316.81;4862466;29;20485;-71
2021/05/22 11:02:35;;;;;;;11.68;2.20;;;;;;;17.00;45.28;100330.22;4862064;29;20053;-70
2021/05/22 11:09:48;;;;;;;10.52;2.10;;;;;;;16.88;45.41;100335.13;4877135;29;20045;-69
2021/05/22 11:12:17;;;;;;;9.57;1.80;;;;;;;16.15;46.02;100362.75;4877104;29;20048;-71
2021/05/22 11:14:53;;;;;;;7.00;1.38;;;;;;;15.50;52.60;100353.09;4862263;29;20064;-70
2021/05/22 11:17:21;;;;;;;5.63;1.50;;;;;;;15.50;53.57;100342.81;4877657;29;20064;-71
2021/05/22 11:22:26;;;;;;;9.05;2.03;;;;;;;15.74;54.52;100325.22;4896054;29;20506;-70
2021/05/22 11:25:05;;;;;;;8.70;2.05;;;;;;;15.83;53.23;100331.38;4938924;29;20403;-69
2021/05/22 11:28:00;;;;;;;6.15;1.70;;;;;;;16.17;52.18;100327.91;4955547;29;20484;-71
2021/05/22 11:30:31;;;;;;;9.50;1.95;;;;;;;16.62;49.92;100330.16;4954441;29;20177;-71
2021/05/22 11:33:09;;;;;;;10.55;1.88;;;;;;;16.61;49.19;100336.91;4954941;29;20051;-71
2021/05/22 11:35:42;;;;;;;5.07;1.55;;;;;;;15.34;56.99;100349.47;4954698;29;20491;-71
2021/05/22 11:39:38;;;;;;;8.48;1.60;;;;;;;15.07;59.76;100351.06;4954295;29;20043;-71
2021/05/22 11:42:27;;;;;;;11.55;1.95;;;;;;;15.66;58.38;100340.06;4938274;29;20047;-71
2021/05/22 11:45:04;;;;;;;9.02;1.60;;;;;;;16.00;56.15;100344.13;4937056;29;20059;-71
2021/05/22 11:47:32;;;;;;;4.93;1.23;;;;;;;16.04;50.54;100351.38;4937504;29;20059;-72
2021/05/22 11:50:01;;;;;;;8.02;1.30;;;;;;;15.83;51.32;100338.94;4954260;29;20523;-72
2021/05/22 11:56:55;;;;;;;6.22;1.20;;;;;;;16.66;48.43;100334.66;4953601;29;20074;-68
2021/05/22 11:59:23;;;;;;;6.10;1.17;;;;;;;16.82;47.17;100332.59;4937097;29;20051;-68
2021/05/22 12:01:50;;;;;;;5.78;1.48;;;;;;;17.14;47.44;100332.50;4935837;29;20566;-71
2021/05/22 12:04:18;;;;;;;4.90;1.20;;;;;;;17.35;45.28;100321.78;4954297;29;20059;-71
2021/05/22 12:11:15;;;;;;;5.53;1.27;;;;;;;17.10;45.36;100334.41;4953850;29;20058;-71
2021/05/22 12:13:59;;;;;;;8.95;1.40;;;;;;;17.47;43.70;100325.22;4921599;29;20051;-70
2021/05/22 12:16:26;;;;;;;7.78;1.00;;;;;;;17.41;43.58;100326.69;4920777;29;20403;-70